Terminal Aerodrome Forecast
Issued by NWS Wilmington, OH

Current Version | Previous Version | Text Only | Print | Product List | Glossary Off
Versions: 1 2 3 4 5 6 7 8 9 10 11 12 13 14 15 16 17

109
FTUS41 KILN 091124
TAFCMH
TAF
KCMH 091124Z 0912/1012 24012KT 3SM -SN OVC015
      TEMPO 0912/0916 1SM -SN OVC008
     FM091700 27012G20KT 5SM -SHSN OVC018
     FM100200 27012KT P6SM VCSH OVC025=

USA.gov is the U.S. government's official web portal to all federal, state and local government web resources and services.